createdAt,value
2022-11-12T00:00:22.865Z,5.37
2022-11-12T00:01:22.876Z,5.38
2022-11-12T00:02:22.923Z,5.38
2022-11-12T00:03:22.902Z,5.38
2022-11-12T00:04:22.911Z,5.33
2022-11-12T00:05:22.920Z,5.38
2022-11-12T00:06:22.932Z,5.25
2022-11-12T00:07:22.946Z,5.31
2022-11-12T00:08:23.159Z,5.38
2022-11-12T00:09:22.965Z,5.37
2022-11-12T00:10:22.977Z,5.29
2022-11-12T00:11:22.991Z,5.34
2022-11-12T00:12:22.999Z,5.33
2022-11-12T00:13:23.010Z,5.26
2022-11-12T00:14:23.021Z,5.22
2022-11-12T00:15:23.035Z,5.31
2022-11-12T00:16:23.044Z,5.25
2022-11-12T00:17:23.054Z,5.20
2022-11-12T00:18:23.141Z,5.26
2022-11-12T00:19:23.077Z,5.31
2022-11-12T00:20:23.089Z,5.23
2022-11-12T00:21:23.096Z,5.25
2022-11-12T00:22:23.112Z,5.26
2022-11-12T00:23:23.128Z,5.25
2022-11-12T00:24:23.131Z,5.25
2022-11-12T00:25:23.141Z,5.25
2022-11-12T00:26:23.151Z,5.23
2022-11-12T00:27:23.165Z,5.28
2022-11-12T00:28:23.403Z,5.20
2022-11-12T00:29:23.186Z,5.26
2022-11-12T00:30:23.200Z,5.23
2022-11-12T00:31:23.208Z,5.23
2022-11-12T00:32:23.218Z,5.26
2022-11-12T00:33:23.229Z,5.25
2022-11-12T00:34:23.240Z,5.19
2022-11-12T00:35:23.251Z,5.12
2022-11-12T00:36:23.263Z,5.20
2022-11-12T00:37:23.271Z,5.16
2022-11-12T00:38:23.466Z,5.16
2022-11-12T00:39:23.294Z,5.15
2022-11-12T00:40:23.304Z,5.12
2022-11-12T00:41:23.315Z,5.08
2022-11-12T00:42:23.327Z,5.02
2022-11-12T00:43:23.338Z,5.10
2022-11-12T00:44:23.349Z,5.10
2022-11-12T00:45:23.360Z,5.18
2022-11-12T00:46:23.370Z,5.10
2022-11-12T00:47:23.384Z,5.13
2022-11-12T00:48:23.601Z,5.07
2022-11-12T00:49:23.405Z,5.12
2022-11-12T00:50:23.413Z,5.00
2022-11-12T00:51:23.426Z,5.10
2022-11-12T00:52:23.438Z,5.04
2022-11-12T00:53:23.445Z,5.00
2022-11-12T00:54:23.460Z,5.10
2022-11-12T00:55:23.469Z,5.01
2022-11-12T00:56:23.478Z,5.07
2022-11-12T00:57:23.489Z,5.02
2022-11-12T00:58:23.749Z,4.98
2022-11-12T00:59:23.512Z,4.97
2022-11-12T01:00:23.522Z,5.04
2022-11-12T01:01:23.560Z,5.00
2022-11-12T01:02:23.547Z,5.00
2022-11-12T01:03:23.574Z,4.97
2022-11-12T01:04:23.565Z,4.95
2022-11-12T01:05:23.599Z,5.02
2022-11-12T01:06:23.597Z,4.97
2022-11-12T01:07:23.606Z,4.92
2022-11-12T01:08:24.203Z,4.92
2022-11-12T01:09:23.618Z,4.90
2022-11-12T01:10:23.634Z,4.87
2022-11-12T01:11:23.649Z,4.95
2022-11-12T01:12:23.657Z,4.95
2022-11-12T01:13:23.661Z,4.90
2022-11-12T01:14:23.676Z,4.94
2022-11-12T01:15:23.687Z,4.92
2022-11-12T01:16:23.695Z,4.90
2022-11-12T01:17:23.706Z,4.92
2022-11-12T01:18:23.952Z,4.89
2022-11-12T01:19:23.725Z,4.97
2022-11-12T01:20:23.737Z,4.90
2022-11-12T01:21:23.748Z,4.92
2022-11-12T01:22:23.760Z,4.89
2022-11-12T01:23:23.770Z,4.79
2022-11-12T01:24:23.778Z,4.86
2022-11-12T01:25:23.791Z,4.87
2022-11-12T01:26:23.800Z,4.94
2022-11-12T01:27:23.810Z,4.92
2022-11-12T01:28:24.187Z,4.87
2022-11-12T01:29:23.832Z,4.92
2022-11-12T01:30:23.842Z,4.90
2022-11-12T01:31:23.856Z,4.87
2022-11-12T01:32:23.866Z,4.86
2022-11-12T01:33:23.877Z,4.92
2022-11-12T01:34:23.888Z,4.90
2022-11-12T01:35:23.897Z,4.86
2022-11-12T01:36:23.906Z,4.95
2022-11-12T01:37:23.919Z,4.97
2022-11-12T01:38:24.366Z,4.94
2022-11-12T01:39:23.945Z,4.90
2022-11-12T01:40:23.949Z,4.95
2022-11-12T01:41:23.961Z,4.95
2022-11-12T01:42:23.970Z,4.97
2022-11-12T01:43:23.981Z,4.94
2022-11-12T01:44:23.992Z,4.90
2022-11-12T01:45:24.002Z,4.90
2022-11-12T01:46:24.013Z,4.92
2022-11-12T01:47:24.024Z,4.94
2022-11-12T01:48:24.334Z,4.92
2022-11-12T01:49:24.046Z,4.92
2022-11-12T01:50:24.055Z,4.90
2022-11-12T01:51:24.065Z,4.87
2022-11-12T01:52:24.076Z,4.90
2022-11-12T01:53:24.088Z,4.87
2022-11-12T01:54:24.099Z,4.92
2022-11-12T01:55:24.119Z,4.89
2022-11-12T01:56:24.119Z,4.90
2022-11-12T01:57:24.132Z,4.90
2022-11-12T01:58:24.481Z,4.92
2022-11-12T01:59:24.154Z,4.90
2022-11-12T02:00:24.167Z,4.89
2022-11-12T02:01:24.255Z,4.97
2022-11-12T02:02:24.203Z,4.90
2022-11-12T02:03:24.195Z,4.90
2022-11-12T02:04:24.206Z,4.97
2022-11-12T02:05:24.219Z,5.00
2022-11-12T02:06:24.228Z,4.97
2022-11-12T02:07:24.241Z,4.95
2022-11-12T02:08:24.457Z,4.97
2022-11-12T02:09:24.264Z,4.95
2022-11-12T02:10:24.271Z,4.98
2022-11-12T02:11:24.282Z,4.95
2022-11-12T02:12:24.291Z,5.01
2022-11-12T02:13:24.301Z,4.98
2022-11-12T02:14:24.315Z,5.02
2022-11-12T02:15:24.325Z,4.95
2022-11-12T02:16:24.334Z,5.07
2022-11-12T02:17:24.349Z,5.04
2022-11-12T02:18:24.623Z,5.00
2022-11-12T02:19:24.369Z,4.95
2022-11-12T02:20:24.383Z,4.98
2022-11-12T02:21:24.389Z,5.08
2022-11-12T02:22:24.399Z,5.00
2022-11-12T02:23:24.419Z,5.05
2022-11-12T02:24:24.420Z,5.01
2022-11-12T02:25:24.433Z,5.12
2022-11-12T02:26:24.444Z,5.13
2022-11-12T02:27:24.453Z,5.04
2022-11-12T02:28:24.899Z,5.12
2022-11-12T02:29:24.476Z,5.12
2022-11-12T02:30:24.486Z,5.13
2022-11-12T02:31:24.499Z,5.13
2022-11-12T02:32:24.508Z,5.13
2022-11-12T02:33:24.520Z,5.12
2022-11-12T02:34:24.529Z,5.16
2022-11-12T02:35:24.540Z,5.18
2022-11-12T02:36:24.550Z,5.13
2022-11-12T02:37:24.569Z,5.18
2022-11-12T02:38:24.811Z,5.16
2022-11-12T02:39:24.584Z,5.19
2022-11-12T02:40:24.593Z,5.18
2022-11-12T02:41:24.606Z,5.19
2022-11-12T02:42:24.616Z,5.19
2022-11-12T02:43:24.627Z,5.28
2022-11-12T02:44:24.637Z,5.20
2022-11-12T02:45:24.648Z,5.19
2022-11-12T02:46:24.660Z,5.18
2022-11-12T02:47:24.673Z,5.23
2022-11-12T02:48:24.691Z,5.20
2022-11-12T02:49:24.691Z,5.18
2022-11-12T02:50:24.702Z,5.15
2022-11-12T02:51:24.715Z,5.15
2022-11-12T02:52:24.726Z,5.15
2022-11-12T02:53:24.736Z,5.16
2022-11-12T02:54:24.749Z,5.18
2022-11-12T02:55:24.758Z,5.16
2022-11-12T02:56:24.769Z,5.23
2022-11-12T02:57:24.781Z,5.18
2022-11-12T02:58:25.176Z,5.19
2022-11-12T02:59:24.800Z,5.19
2022-11-12T03:00:24.811Z,5.20
2022-11-12T03:01:24.852Z,5.23
2022-11-12T03:02:24.835Z,5.19
2022-11-12T03:03:24.844Z,5.19
2022-11-12T03:04:24.858Z,5.15
2022-11-12T03:05:24.866Z,5.20
2022-11-12T03:06:24.874Z,5.16
2022-11-12T03:07:24.889Z,5.19
2022-11-12T03:08:25.310Z,5.20
2022-11-12T03:09:24.909Z,5.16
2022-11-12T03:10:24.924Z,5.16
2022-11-12T03:11:24.930Z,5.19
2022-11-12T03:12:24.943Z,5.13
2022-11-12T03:13:24.954Z,5.13
2022-11-12T03:14:24.966Z,5.19
2022-11-12T03:15:24.975Z,5.12
2022-11-12T03:16:24.987Z,5.18
2022-11-12T03:17:24.998Z,5.16
2022-11-12T03:18:25.156Z,5.19
2022-11-12T03:19:25.020Z,5.16
2022-11-12T03:20:25.030Z,5.13
2022-11-12T03:21:25.043Z,5.16
2022-11-12T03:22:25.052Z,5.18
2022-11-12T03:23:25.062Z,5.16
2022-11-12T03:24:25.074Z,5.12
2022-11-12T03:25:25.086Z,5.10
2022-11-12T03:26:25.095Z,5.19
2022-11-12T03:27:25.107Z,5.18
2022-11-12T03:28:25.483Z,5.16
2022-11-12T03:29:25.130Z,5.10
2022-11-12T03:30:25.141Z,5.02
2022-11-12T03:31:25.151Z,5.16
2022-11-12T03:32:25.161Z,5.18
2022-11-12T03:33:25.173Z,5.13
2022-11-12T03:34:25.181Z,5.13
2022-11-12T03:35:25.196Z,5.10
2022-11-12T03:36:25.206Z,5.05
2022-11-12T03:37:25.215Z,5.12
2022-11-12T03:38:25.484Z,5.16
2022-11-12T03:39:25.240Z,5.10
2022-11-12T03:40:25.248Z,5.13
2022-11-12T03:41:25.265Z,5.12
2022-11-12T03:42:25.271Z,5.10
2022-11-12T03:43:25.282Z,5.07
2022-11-12T03:44:25.289Z,4.98
2022-11-12T03:45:25.303Z,5.04
2022-11-12T03:46:25.313Z,5.01
2022-11-12T03:47:25.326Z,5.00
2022-11-12T03:48:25.676Z,5.01
2022-11-12T03:49:25.345Z,5.07
2022-11-12T03:50:25.359Z,4.97
2022-11-12T03:51:25.374Z,4.90
2022-11-12T03:52:25.380Z,4.90
2022-11-12T03:53:25.391Z,4.92
2022-11-12T03:54:25.401Z,4.94
2022-11-12T03:55:25.411Z,4.79
2022-11-12T03:56:25.421Z,4.89
2022-11-12T03:57:25.430Z,4.78
2022-11-12T03:58:25.634Z,4.79
2022-11-12T03:59:25.462Z,4.74
2022-11-12T04:00:25.500Z,4.76
2022-11-12T04:01:25.554Z,4.70
2022-11-12T04:02:25.485Z,4.75
2022-11-12T04:03:25.497Z,4.57
2022-11-12T04:04:25.507Z,4.60
2022-11-12T04:05:25.516Z,4.64
2022-11-12T04:06:25.536Z,4.61
2022-11-12T04:07:25.554Z,4.58
2022-11-12T04:08:25.767Z,4.46
2022-11-12T04:09:25.559Z,4.50
2022-11-12T04:10:25.571Z,4.45
2022-11-12T04:11:25.580Z,4.43
2022-11-12T04:12:25.591Z,4.45
2022-11-12T04:13:25.599Z,4.48
2022-11-12T04:14:25.620Z,4.39
2022-11-12T04:15:25.623Z,4.38
2022-11-12T04:16:25.634Z,4.39
2022-11-12T04:17:25.643Z,4.32
2022-11-12T04:18:25.897Z,4.32
2022-11-12T04:19:25.665Z,4.30
2022-11-12T04:20:25.677Z,4.27
2022-11-12T04:21:25.686Z,4.34
2022-11-12T04:22:25.695Z,4.32
2022-11-12T04:23:25.706Z,4.27
2022-11-12T04:24:25.715Z,4.24
2022-11-12T04:25:25.727Z,4.25
2022-11-12T04:26:25.739Z,4.31
2022-11-12T04:27:25.748Z,4.28
2022-11-12T04:28:26.029Z,4.22
2022-11-12T04:29:25.769Z,4.24
2022-11-12T04:30:25.778Z,4.21
2022-11-12T04:31:25.791Z,4.09
2022-11-12T04:32:25.797Z,4.13
2022-11-12T04:33:25.808Z,4.03
2022-11-12T04:34:25.851Z,4.09
2022-11-12T04:35:25.828Z,4.07
2022-11-12T04:36:25.838Z,4.06
2022-11-12T04:37:25.848Z,4.06
2022-11-12T04:38:26.190Z,4.02
2022-11-12T04:39:25.871Z,4.03
2022-11-12T04:40:25.886Z,4.03
2022-11-12T04:41:25.890Z,3.96
2022-11-12T04:42:25.899Z,3.91
2022-11-12T04:43:25.911Z,3.92
2022-11-12T04:44:25.920Z,3.89
2022-11-12T04:45:25.930Z,3.86
2022-11-12T04:46:25.941Z,3.91
2022-11-12T04:47:25.955Z,3.91
2022-11-12T04:48:26.240Z,3.86
2022-11-12T04:49:25.970Z,3.81
2022-11-12T04:50:25.979Z,3.82
2022-11-12T04:51:25.992Z,3.84
2022-11-12T04:52:26.002Z,3.84
2022-11-12T04:53:26.010Z,3.64
2022-11-12T04:54:26.020Z,3.71
2022-11-12T04:55:26.030Z,3.68
2022-11-12T04:56:26.041Z,3.73
2022-11-12T04:57:26.049Z,3.74
2022-11-12T04:58:26.309Z,3.70
2022-11-12T04:59:26.070Z,3.64
2022-11-12T05:00:26.079Z,3.61
2022-11-12T05:01:26.120Z,3.61
2022-11-12T05:02:26.103Z,3.66
2022-11-12T05:03:26.113Z,3.61
2022-11-12T05:04:26.120Z,3.66
2022-11-12T05:05:28.541Z,3.50
2022-11-12T05:06:26.139Z,3.64
2022-11-12T05:07:26.151Z,3.49
2022-11-12T05:08:26.522Z,3.55
2022-11-12T05:09:26.168Z,3.52
2022-11-12T05:10:26.179Z,3.46
2022-11-12T05:11:26.188Z,3.49
2022-11-12T05:12:26.197Z,3.55
2022-11-12T05:13:26.205Z,3.53
2022-11-12T05:14:26.217Z,3.46
2022-11-12T05:15:26.225Z,3.46
2022-11-12T05:16:26.240Z,3.52
2022-11-12T05:17:26.248Z,3.41
2022-11-12T05:18:26.562Z,3.48
2022-11-12T05:19:26.272Z,3.43
2022-11-12T05:20:26.275Z,3.41
2022-11-12T05:21:26.285Z,3.31
2022-11-12T05:22:42.679Z,3.33
2022-11-12T05:23:26.307Z,3.40
2022-11-12T05:24:40.915Z,3.26
2022-11-12T05:25:26.324Z,3.29
2022-11-12T05:26:26.335Z,3.36
2022-11-12T05:27:26.345Z,3.33
2022-11-12T05:28:26.502Z,3.34
2022-11-12T05:29:26.364Z,3.29
2022-11-12T05:30:26.374Z,3.33
2022-11-12T05:31:26.388Z,3.40
2022-11-12T05:32:26.394Z,3.22
2022-11-12T05:33:26.401Z,3.26
2022-11-12T05:34:26.409Z,3.21
2022-11-12T05:35:26.422Z,3.24
2022-11-12T05:36:26.431Z,3.19
2022-11-12T05:37:26.441Z,3.24
2022-11-12T05:38:26.711Z,3.21
2022-11-12T05:39:26.461Z,3.16
2022-11-12T05:40:26.469Z,3.19
2022-11-12T05:41:26.478Z,3.08
2022-11-12T05:42:26.497Z,3.03
2022-11-12T05:43:26.498Z,3.18
2022-11-12T05:44:26.508Z,3.15
2022-11-12T05:45:26.518Z,3.16
2022-11-12T05:46:26.526Z,3.13
2022-11-12T05:47:26.536Z,3.05
2022-11-12T05:48:26.933Z,3.01
2022-11-12T05:49:26.556Z,3.09
2022-11-12T05:50:34.828Z,3.06
2022-11-12T05:51:26.574Z,3.15
2022-11-12T05:52:26.583Z,3.11
2022-11-12T05:53:26.592Z,3.11
2022-11-12T05:54:26.602Z,3.05
2022-11-12T05:55:26.614Z,3.05
2022-11-12T05:56:26.622Z,3.01
2022-11-12T05:57:26.632Z,3.03
2022-11-12T05:58:26.909Z,3.06
2022-11-12T05:59:26.649Z,3.03
2022-11-12T06:00:26.660Z,3.03
2022-11-12T06:01:26.669Z,3.00
2022-11-12T06:02:26.731Z,3.00
2022-11-12T06:03:26.687Z,2.97
2022-11-12T06:04:26.695Z,3.05
2022-11-12T06:05:26.708Z,3.01
2022-11-12T06:06:26.717Z,3.01
2022-11-12T06:07:26.727Z,3.00
2022-11-12T06:08:26.985Z,3.03
2022-11-12T06:09:26.744Z,2.95
2022-11-12T06:10:26.753Z,3.06
2022-11-12T06:11:26.764Z,3.03
2022-11-12T06:12:26.773Z,3.00
2022-11-12T06:13:26.783Z,2.94
2022-11-12T06:14:26.791Z,3.00
2022-11-12T06:15:26.801Z,2.93
2022-11-12T06:16:26.809Z,2.90
2022-11-12T06:17:26.821Z,2.93
2022-11-12T06:18:27.033Z,3.05
2022-11-12T06:19:26.841Z,2.90
2022-11-12T06:20:26.852Z,3.03
2022-11-12T06:21:26.859Z,3.06
2022-11-12T06:22:26.869Z,3.01
2022-11-12T06:23:26.880Z,3.08
2022-11-12T06:24:29.509Z,3.03
2022-11-12T06:25:26.897Z,2.95
2022-11-12T06:26:26.907Z,3.05
2022-11-12T06:27:26.913Z,2.91
2022-11-12T06:28:27.126Z,2.98
2022-11-12T06:29:26.934Z,2.94
2022-11-12T06:30:26.942Z,2.95
2022-11-12T06:31:26.954Z,3.03
2022-11-12T06:32:26.962Z,2.93
2022-11-12T06:33:26.974Z,2.91
2022-11-12T06:34:26.980Z,3.03
2022-11-12T06:35:26.990Z,3.00
2022-11-12T06:36:26.998Z,2.97
2022-11-12T06:37:27.009Z,2.93
2022-11-12T06:38:27.300Z,3.03
2022-11-12T06:39:27.028Z,3.01
2022-11-12T06:40:27.039Z,3.05
2022-11-12T06:41:27.047Z,2.95
2022-11-12T06:42:27.055Z,2.97
2022-11-12T06:43:27.067Z,3.05
2022-11-12T06:44:27.077Z,2.98
2022-11-12T06:45:27.084Z,2.98
2022-11-12T06:46:27.094Z,3.05
2022-11-12T06:47:27.110Z,3.05
2022-11-12T06:48:27.323Z,3.08
2022-11-12T06:49:27.122Z,3.06
2022-11-12T06:50:27.130Z,3.03
2022-11-12T06:51:27.142Z,3.05
2022-11-12T06:52:27.150Z,3.00
2022-11-12T06:53:27.160Z,3.06
2022-11-12T06:54:27.169Z,3.06
2022-11-12T06:55:27.179Z,3.09
2022-11-12T06:56:27.189Z,3.03
2022-11-12T06:57:27.200Z,3.19
2022-11-12T06:58:27.506Z,3.08
2022-11-12T06:59:27.218Z,3.08
2022-11-12T07:00:27.225Z,3.15
2022-11-12T07:01:27.286Z,3.12
2022-11-12T07:02:27.248Z,3.16
2022-11-12T07:03:27.257Z,3.15
2022-11-12T07:04:27.267Z,3.11
2022-11-12T07:05:27.276Z,3.05
2022-11-12T07:06:27.284Z,3.15
2022-11-12T07:07:27.341Z,3.22
2022-11-12T07:08:27.605Z,3.31
2022-11-12T07:09:27.314Z,3.29
2022-11-12T07:10:27.323Z,3.26
2022-11-12T07:11:27.336Z,3.15
2022-11-12T07:12:27.351Z,3.19
2022-11-12T07:13:27.394Z,3.30
2022-11-12T07:14:27.363Z,3.30
2022-11-12T07:15:27.375Z,3.30
2022-11-12T07:16:27.379Z,3.27
2022-11-12T07:17:27.392Z,3.36
2022-11-12T07:18:27.653Z,3.40
2022-11-12T07:19:27.416Z,3.29
2022-11-12T07:20:27.424Z,3.40
2022-11-12T07:21:27.429Z,3.41
2022-11-12T07:22:27.444Z,3.41
2022-11-12T07:23:27.452Z,3.45
2022-11-12T07:24:27.460Z,3.46
2022-11-12T07:25:27.470Z,3.52
2022-11-12T07:26:27.482Z,3.46
2022-11-12T07:27:27.490Z,3.56
2022-11-12T07:28:27.651Z,3.59
2022-11-12T07:29:46.520Z,3.64
2022-11-12T07:30:27.519Z,3.53
2022-11-12T07:31:27.531Z,3.64
2022-11-12T07:32:27.541Z,3.61
2022-11-12T07:33:27.548Z,3.64
2022-11-12T07:34:27.559Z,3.71
2022-11-12T07:35:27.570Z,3.73
2022-11-12T07:36:27.582Z,3.66
2022-11-12T07:37:27.589Z,3.86
2022-11-12T07:38:27.827Z,3.78
2022-11-12T07:39:27.610Z,3.81
2022-11-12T07:40:27.688Z,3.81
2022-11-12T07:41:27.630Z,3.85
2022-11-12T07:42:27.643Z,3.86
2022-11-12T07:43:27.653Z,3.89
2022-11-12T07:44:27.673Z,3.89
2022-11-12T07:45:27.671Z,3.91
2022-11-12T07:46:27.681Z,4.02
2022-11-12T07:47:27.692Z,4.02
2022-11-12T07:48:27.943Z,4.03
2022-11-12T07:49:27.711Z,4.03
2022-11-12T07:50:27.760Z,4.03
2022-11-12T07:51:27.732Z,4.04
2022-11-12T07:52:27.745Z,4.16
2022-11-12T07:53:27.755Z,4.10
2022-11-12T07:54:27.764Z,4.25
2022-11-12T07:55:27.775Z,4.22
2022-11-12T07:56:27.783Z,4.20
2022-11-12T07:57:27.794Z,4.22
2022-11-12T07:58:27.993Z,4.34
2022-11-12T07:59:27.816Z,4.16
2022-11-12T08:00:27.935Z,4.32
2022-11-12T08:01:27.881Z,4.34
2022-11-12T08:02:27.847Z,4.27
2022-11-12T08:03:27.860Z,4.30
2022-11-12T08:04:27.867Z,4.40
2022-11-12T08:05:27.880Z,4.31
2022-11-12T08:06:27.888Z,4.38
2022-11-12T08:07:27.955Z,4.42
2022-11-12T08:08:28.385Z,4.46
2022-11-12T08:09:27.921Z,4.46
2022-11-12T08:10:27.937Z,4.57
2022-11-12T08:11:27.947Z,4.64
2022-11-12T08:12:27.950Z,4.58
2022-11-12T08:13:27.965Z,4.60
2022-11-12T08:14:27.975Z,4.75
2022-11-12T08:15:27.987Z,4.76
2022-11-12T08:16:27.994Z,4.67
2022-11-12T08:17:28.007Z,4.84
2022-11-12T08:18:28.234Z,4.86
2022-11-12T08:19:28.029Z,4.92
2022-11-12T08:20:28.040Z,4.87
2022-11-12T08:21:28.049Z,4.90
2022-11-12T08:22:28.061Z,4.97
2022-11-12T08:23:28.072Z,4.97
2022-11-12T08:24:28.081Z,4.98
2022-11-12T08:25:28.094Z,5.08
2022-11-12T08:26:28.106Z,5.13
2022-11-12T08:27:28.117Z,5.10
2022-11-12T08:28:28.464Z,5.16
2022-11-12T08:29:28.138Z,5.19
2022-11-12T08:30:28.149Z,5.25
2022-11-12T08:31:28.159Z,5.23
2022-11-12T08:32:28.169Z,5.31
2022-11-12T08:33:28.182Z,5.36
2022-11-12T08:34:28.193Z,5.33
2022-11-12T08:35:28.207Z,5.41
2022-11-12T08:36:28.214Z,5.51
2022-11-12T08:37:28.226Z,5.44
2022-11-12T08:38:28.560Z,5.56
2022-11-12T08:39:28.250Z,5.59
2022-11-12T08:40:28.261Z,5.51
2022-11-12T08:41:28.271Z,5.58
2022-11-12T08:42:28.281Z,5.59
2022-11-12T08:43:28.296Z,5.72
2022-11-12T08:44:28.305Z,5.73
2022-11-12T08:45:28.321Z,5.65
2022-11-12T08:46:28.330Z,5.81
2022-11-12T08:47:28.341Z,5.77
2022-11-12T08:48:28.634Z,5.74
2022-11-12T08:49:28.362Z,5.84
2022-11-12T08:50:28.382Z,5.94
2022-11-12T08:51:28.388Z,5.92
2022-11-12T08:52:28.397Z,6.02
2022-11-12T08:53:28.414Z,5.98
2022-11-12T08:54:28.424Z,5.98
2022-11-12T08:55:28.434Z,6.05
2022-11-12T08:56:28.445Z,6.02
2022-11-12T08:57:28.457Z,6.12
2022-11-12T08:58:28.802Z,6.19
2022-11-12T08:59:28.481Z,6.17
2022-11-12T09:00:28.492Z,6.29
2022-11-12T09:01:28.554Z,6.20
2022-11-12T09:02:28.518Z,6.28
2022-11-12T09:03:28.529Z,6.32
2022-11-12T09:04:28.540Z,6.39
2022-11-12T09:05:28.557Z,6.38
2022-11-12T09:06:28.566Z,6.47
2022-11-12T09:07:48.731Z,6.44
2022-11-12T09:08:28.990Z,6.53
2022-11-12T09:09:28.603Z,6.57
2022-11-12T09:10:28.611Z,6.62
2022-11-12T09:11:28.625Z,6.62
2022-11-12T09:12:28.637Z,6.64
2022-11-12T09:13:28.750Z,6.64
2022-11-12T09:14:28.661Z,6.68
2022-11-12T09:15:37.371Z,6.77
2022-11-12T09:16:28.685Z,6.75
2022-11-12T09:17:28.696Z,6.92
2022-11-12T09:18:29.081Z,6.83
2022-11-12T09:19:28.720Z,6.80
2022-11-12T09:20:28.735Z,6.85
2022-11-12T09:21:28.747Z,7.07
2022-11-12T09:22:28.760Z,7.03
2022-11-12T09:23:28.773Z,7.04
2022-11-12T09:24:28.788Z,7.18
2022-11-12T09:25:28.800Z,7.13
2022-11-12T09:26:28.811Z,7.25
2022-11-12T09:27:28.822Z,7.23
2022-11-12T09:28:29.167Z,7.19
2022-11-12T09:29:28.847Z,7.28
2022-11-12T09:30:28.859Z,7.29
2022-11-12T09:31:28.875Z,7.25
2022-11-12T09:32:28.885Z,7.40
2022-11-12T09:33:28.901Z,7.46
2022-11-12T09:34:28.913Z,7.46
2022-11-12T09:35:28.924Z,7.50
2022-11-12T09:36:28.937Z,7.55
2022-11-12T09:37:28.952Z,7.61
2022-11-12T09:38:29.077Z,7.59
2022-11-12T09:39:28.976Z,7.67
2022-11-12T09:40:28.988Z,7.70
2022-11-12T09:41:29.003Z,7.74
2022-11-12T09:42:29.015Z,7.90
2022-11-12T09:43:29.029Z,7.93
2022-11-12T09:44:32.832Z,7.99
2022-11-12T09:45:29.057Z,8.11
2022-11-12T09:46:29.067Z,8.11
2022-11-12T09:47:29.083Z,8.16
2022-11-12T09:48:29.211Z,8.27
2022-11-12T09:49:29.108Z,8.36
2022-11-12T09:50:29.121Z,8.35
2022-11-12T09:51:29.136Z,8.54
2022-11-12T09:52:29.149Z,8.57
2022-11-12T09:53:29.161Z,8.54
2022-11-12T09:54:29.176Z,8.64
2022-11-12T09:55:29.192Z,8.71
2022-11-12T09:56:29.203Z,8.74
2022-11-12T09:57:29.217Z,8.75
2022-11-12T09:58:29.581Z,8.84
2022-11-12T09:59:29.254Z,8.92
2022-11-12T10:00:29.263Z,9.12
2022-11-12T10:01:29.304Z,9.21
2022-11-12T10:02:29.290Z,9.18
2022-11-12T10:03:29.311Z,9.30
2022-11-12T10:04:29.320Z,9.34
2022-11-12T10:05:29.330Z,9.34
2022-11-12T10:06:29.347Z,9.48
2022-11-12T10:07:29.366Z,9.58
2022-11-12T10:08:29.694Z,9.59
2022-11-12T10:09:29.397Z,9.72
2022-11-12T10:10:29.410Z,9.76
2022-11-12T10:11:29.419Z,9.90
2022-11-12T10:12:29.434Z,9.92
2022-11-12T10:13:29.449Z,9.97
2022-11-12T10:14:29.466Z,10.09
2022-11-12T10:15:29.481Z,10.10
2022-11-12T10:16:29.496Z,10.15
2022-11-12T10:17:29.512Z,10.09
2022-11-12T10:18:29.691Z,10.23
2022-11-12T10:19:29.542Z,10.36
2022-11-12T10:20:31.597Z,10.30
2022-11-12T10:21:29.571Z,10.34
2022-11-12T10:22:29.589Z,10.45
2022-11-12T10:23:29.602Z,10.51
2022-11-12T10:24:29.620Z,10.48
2022-11-12T10:25:29.635Z,10.53
2022-11-12T10:26:29.649Z,10.71
2022-11-12T10:27:29.668Z,10.69
2022-11-12T10:28:33.021Z,10.77
2022-11-12T10:29:29.698Z,10.77
2022-11-12T10:30:29.717Z,11.00
2022-11-12T10:31:29.730Z,10.95
2022-11-12T10:32:29.745Z,10.97
2022-11-12T10:33:29.767Z,11.18
2022-11-12T10:34:29.776Z,11.20
2022-11-12T10:35:29.798Z,11.27
2022-11-12T10:36:29.811Z,11.35
2022-11-12T10:37:29.833Z,11.40
2022-11-12T10:38:29.964Z,11.48
2022-11-12T10:39:29.862Z,11.52
2022-11-12T10:40:29.876Z,11.52
2022-11-12T10:41:29.895Z,11.70
2022-11-12T10:42:29.911Z,11.70
2022-11-12T10:43:29.931Z,11.73
2022-11-12T10:44:29.942Z,11.81
2022-11-12T10:45:29.967Z,11.88
2022-11-12T10:46:29.979Z,11.93
2022-11-12T10:47:29.995Z,11.88
2022-11-12T10:48:30.254Z,11.97
2022-11-12T10:49:30.027Z,11.97
2022-11-12T10:50:30.047Z,12.08
2022-11-12T10:51:30.063Z,12.11
2022-11-12T10:52:30.079Z,12.25
2022-11-12T10:53:30.097Z,12.18
2022-11-12T10:54:30.118Z,12.37
2022-11-12T10:55:30.131Z,12.32
2022-11-12T10:56:30.146Z,12.36
2022-11-12T10:57:30.167Z,12.40
2022-11-12T10:58:30.351Z,12.43
2022-11-12T10:59:30.202Z,12.43
2022-11-12T11:00:30.218Z,12.43
2022-11-12T11:01:35.324Z,12.51
2022-11-12T11:02:30.303Z,12.51
2022-11-12T11:03:30.275Z,12.57
2022-11-12T11:04:30.291Z,12.66
2022-11-12T11:05:30.305Z,12.68
2022-11-12T11:06:30.327Z,12.62
2022-11-12T11:07:30.344Z,12.69
2022-11-12T11:08:34.686Z,12.76
2022-11-12T11:09:30.376Z,12.75
2022-11-12T11:10:30.398Z,12.73
2022-11-12T11:11:30.412Z,12.86
2022-11-12T11:12:30.429Z,12.80
2022-11-12T11:13:30.449Z,12.83
2022-11-12T11:14:30.463Z,12.84
2022-11-12T11:15:30.482Z,12.91
2022-11-12T11:16:30.500Z,12.99
2022-11-12T11:17:30.516Z,13.01
2022-11-12T11:18:30.537Z,13.02
2022-11-12T11:19:30.554Z,12.95
2022-11-12T11:20:30.571Z,12.98
2022-11-12T11:21:30.592Z,13.11
2022-11-12T11:22:30.608Z,13.11
2022-11-12T11:23:30.622Z,13.13
2022-11-12T11:24:30.642Z,13.12
2022-11-12T11:25:30.662Z,13.13
2022-11-12T11:26:30.676Z,13.11
2022-11-12T11:27:30.694Z,13.16
2022-11-12T11:28:30.711Z,13.20
2022-11-12T11:29:30.731Z,13.21
2022-11-12T11:30:30.749Z,13.30
2022-11-12T11:31:30.766Z,13.26
2022-11-12T11:32:36.081Z,13.28
2022-11-12T11:33:30.800Z,13.23
2022-11-12T11:34:30.819Z,13.26
2022-11-12T11:35:30.838Z,13.26
2022-11-12T11:36:30.856Z,13.31
2022-11-12T11:37:30.869Z,13.26
2022-11-12T11:38:30.891Z,13.21
2022-11-12T11:39:30.910Z,13.28
2022-11-12T11:40:30.925Z,13.12
2022-11-12T11:41:30.946Z,13.26
2022-11-12T11:42:30.961Z,13.13
2022-11-12T11:43:30.980Z,13.19
2022-11-12T11:44:31.036Z,13.20
2022-11-12T11:45:31.014Z,13.09
2022-11-12T11:46:31.031Z,13.16
2022-11-12T11:47:50.367Z,13.20
2022-11-12T11:48:31.069Z,13.20
2022-11-12T11:49:31.083Z,13.19
2022-11-12T11:50:31.103Z,13.13
2022-11-12T11:51:31.121Z,13.06
2022-11-12T11:52:31.135Z,13.05
2022-11-12T11:53:31.157Z,13.03
2022-11-12T11:54:31.178Z,13.01
2022-11-12T11:55:31.192Z,12.99
2022-11-12T11:56:31.205Z,12.95
2022-11-12T11:57:31.241Z,12.93
2022-11-12T11:58:31.249Z,12.90
2022-11-12T11:59:31.257Z,12.88
2022-11-12T12:00:31.275Z,12.86
2022-11-12T12:01:31.291Z,12.88
2022-11-12T12:02:31.311Z,12.84
2022-11-12T12:03:33.033Z,12.84
2022-11-12T12:04:31.346Z,12.84
2022-11-12T12:05:31.362Z,12.84
2022-11-12T12:06:31.379Z,12.86
2022-11-12T12:07:31.395Z,12.87
2022-11-12T12:08:31.413Z,12.83
2022-11-12T12:09:31.427Z,12.87
2022-11-12T12:10:53.258Z,12.83
2022-11-12T12:11:31.462Z,12.80
2022-11-12T12:12:31.479Z,12.81
2022-11-12T12:13:31.497Z,12.81
2022-11-12T12:14:31.516Z,12.80
2022-11-12T12:15:31.530Z,12.80
2022-11-12T12:16:31.551Z,12.78
2022-11-12T12:17:32.177Z,12.81
2022-11-12T12:18:31.581Z,12.76
2022-11-12T12:19:31.599Z,12.88
2022-11-12T12:20:31.615Z,12.78
2022-11-12T12:21:31.633Z,12.78
2022-11-12T12:22:31.649Z,12.75
2022-11-12T12:23:31.668Z,12.73
2022-11-12T12:24:31.687Z,12.76
2022-11-12T12:25:31.699Z,12.72
2022-11-12T12:26:31.720Z,12.83
2022-11-12T12:27:31.737Z,12.70
2022-11-12T12:28:31.752Z,12.88
2022-11-12T12:29:31.768Z,12.72
2022-11-12T12:30:31.783Z,12.86
2022-11-12T12:31:31.801Z,12.83
2022-11-12T12:32:31.818Z,12.69
2022-11-12T12:33:31.839Z,12.81
2022-11-12T12:34:31.855Z,12.70
2022-11-12T12:35:31.870Z,12.78
2022-11-12T12:36:31.889Z,12.80
2022-11-12T12:37:31.903Z,12.83
2022-11-12T12:38:31.921Z,12.78
2022-11-12T12:39:31.936Z,12.73
2022-11-12T12:40:31.953Z,12.66
2022-11-12T12:41:31.969Z,12.75
2022-11-12T12:42:31.988Z,12.76
2022-11-12T12:43:32.008Z,12.76
2022-11-12T12:44:32.019Z,12.76
2022-11-12T12:45:35.710Z,12.73
2022-11-12T12:46:32.052Z,12.68
2022-11-12T12:47:32.070Z,12.68
2022-11-12T12:48:32.085Z,12.72
2022-11-12T12:49:32.105Z,12.70
2022-11-12T12:50:32.120Z,12.66
2022-11-12T12:51:32.134Z,12.69
2022-11-12T12:52:32.155Z,12.69
2022-11-12T12:53:32.169Z,12.80
2022-11-12T12:54:32.190Z,12.68
2022-11-12T12:55:32.204Z,12.72
2022-11-12T12:56:32.224Z,12.65
2022-11-12T12:57:32.236Z,12.68
2022-11-12T12:58:32.258Z,12.68
2022-11-12T12:59:32.285Z,12.70
2022-11-12T13:00:32.325Z,12.68
2022-11-12T13:01:32.304Z,12.72
2022-11-12T13:02:32.320Z,12.69
2022-11-12T13:03:32.337Z,12.80
2022-11-12T13:04:32.354Z,12.65
2022-11-12T13:05:32.373Z,12.70
2022-11-12T13:06:32.387Z,12.62
2022-11-12T13:07:32.415Z,12.66
2022-11-12T13:08:32.419Z,12.68
2022-11-12T13:09:32.437Z,12.61
2022-11-12T13:10:32.454Z,12.66
2022-11-12T13:11:32.469Z,12.65
2022-11-12T13:12:32.485Z,12.68